Time;durP1;ratioP1;P1;durP2;ratioP2;P2;SDS_P1;SDS_P2;PMS_P1;PMS_P2;Temp;Humidity;BMP_temperature;BMP_pressure;BME280_temperature;BME280_humidity;BME280_pressure;Samples;Min_cycle;Max_cycle;Signal;HPM_P1;HPM_P2
2022/09/24 00:01:23;;;;;;;0.80;0.80;;;;;;;;;;5092955;28;20637;-80
2022/09/24 00:03:52;;;;;;;0.80;0.80;;;;;;;;;;5092071;28;20197;-79
2022/09/24 00:06:19;;;;;;;0.90;0.90;;;;;;;;;;5092987;28;20196;-79
2022/09/24 00:08:47;;;;;;;1.03;0.93;;;;;;;;;;5092486;28;20223;-80
2022/09/24 00:11:14;;;;;;;0.77;0.77;;;;;;;;;;5092706;28;20201;-79
2022/09/24 00:13:41;;;;;;;0.87;0.87;;;;;;;;;;5092170;28;20722;-80
2022/09/24 00:16:11;;;;;;;0.73;0.73;;;;;;;;;;5092339;28;20204;-79
2022/09/24 00:18:38;;;;;;;0.80;0.80;;;;;;;;;;5092614;28;20196;-79
2022/09/24 00:21:13;;;;;;;0.60;0.60;;;;;;;;;;5078115;28;20201;-79
2022/09/24 00:23:39;;;;;;;0.70;0.70;;;;;;;;;;5092607;28;20199;-79
2022/09/24 00:28:51;;;;;;;0.70;0.70;;;;;;;;;;5092187;28;20216;-79
2022/09/24 00:31:19;;;;;;;1.17;1.00;;;;;;;;;;5077738;28;20197;-79
2022/09/24 00:33:46;;;;;;;1.07;1.07;;;;;;;;;;5091857;28;20228;-80
2022/09/24 00:36:13;;;;;;;0.70;0.70;;;;;;;;;;5091696;28;20594;-79
2022/09/24 00:38:40;;;;;;;0.60;0.60;;;;;;;;;;5092017;28;20372;-80
2022/09/24 00:41:07;;;;;;;0.60;0.60;;;;;;;;;;5091809;28;20201;-80
2022/09/24 00:43:37;;;;;;;0.70;0.70;;;;;;;;;;5091673;28;20204;-80
2022/09/24 00:46:08;;;;;;;0.77;0.77;;;;;;;;;;5092124;28;20201;-80
2022/09/24 00:48:39;;;;;;;0.73;0.73;;;;;;;;;;5091834;28;20568;-79
2022/09/24 00:51:06;;;;;;;1.03;1.03;;;;;;;;;;5091717;28;20281;-80
2022/09/24 00:53:33;;;;;;;1.07;1.00;;;;;;;;;;5091497;28;20250;-80
2022/09/24 00:56:01;;;;;;;0.80;0.80;;;;;;;;;;5091304;28;20208;-79
2022/09/24 00:58:30;;;;;;;0.70;0.70;;;;;;;;;;5077435;28;20212;-80
2022/09/24 01:00:59;;;;;;;0.70;0.70;;;;;;;;;;5085108;28;20675;-80
2022/09/24 01:03:27;;;;;;;0.60;0.60;;;;;;;;;;5084470;28;20204;-80
2022/09/24 01:05:56;;;;;;;1.03;0.83;;;;;;;;;;5091187;28;20205;-79
2022/09/24 01:08:23;;;;;;;0.80;0.80;;;;;;;;;;5091473;28;20200;-79
2022/09/24 01:11:11;;;;;;;0.90;0.90;;;;;;;;;;5091057;28;20196;-80
2022/09/24 01:14:05;;;;;;;0.87;0.87;;;;;;;;;;5091613;28;20223;-80
2022/09/24 01:16:38;;;;;;;0.93;0.87;;;;;;;;;;5091310;28;20196;-80
2022/09/24 01:19:18;;;;;;;1.10;1.10;;;;;;;;;;5091105;28;20285;-80
2022/09/24 01:21:49;;;;;;;0.80;0.80;;;;;;;;;;5091267;28;20193;-80
2022/09/24 01:24:28;;;;;;;0.83;0.83;;;;;;;;;;5090613;28;20287;-80
2022/09/24 01:27:01;;;;;;;0.60;0.60;;;;;;;;;;5091089;28;20619;-80
2022/09/24 01:29:33;;;;;;;0.80;0.80;;;;;;;;;;5090853;28;20667;-80
2022/09/24 01:32:04;;;;;;;1.13;1.13;;;;;;;;;;5091358;28;20212;-79
2022/09/24 01:34:36;;;;;;;1.37;1.27;;;;;;;;;;5090467;28;20239;-80
2022/09/24 01:37:04;;;;;;;0.87;0.87;;;;;;;;;;5091185;28;20203;-79
2022/09/24 01:39:31;;;;;;;0.97;0.97;;;;;;;;;;5090070;28;20204;-80
2022/09/24 01:41:58;;;;;;;0.90;0.90;;;;;;;;;;5086438;28;20205;-80
2022/09/24 01:44:25;;;;;;;1.17;1.10;;;;;;;;;;5081038;28;20674;-80
2022/09/24 01:46:54;;;;;;;0.80;0.80;;;;;;;;;;5091084;28;20231;-80
2022/09/24 01:49:21;;;;;;;0.63;0.63;;;;;;;;;;5090662;28;20705;-79
2022/09/24 01:51:50;;;;;;;0.80;0.80;;;;;;;;;;5090902;28;20218;-80
2022/09/24 01:54:20;;;;;;;1.20;1.17;;;;;;;;;;5090136;28;20228;-80
2022/09/24 01:56:50;;;;;;;0.83;0.83;;;;;;;;;;5090897;28;20614;-80
2022/09/24 01:59:19;;;;;;;0.60;0.60;;;;;;;;;;5090794;28;20227;-80
2022/09/24 02:01:50;;;;;;;1.43;1.10;;;;;;;;;;5090967;28;20208;-80
2022/09/24 02:04:20;;;;;;;0.87;0.87;;;;;;;;;;5090492;28;20209;-79
2022/09/24 02:06:51;;;;;;;0.80;0.80;;;;;;;;;;5090127;28;20200;-79
2022/09/24 02:09:29;;;;;;;0.83;0.83;;;;;;;;;;5090253;28;20246;-79
2022/09/24 02:11:59;;;;;;;0.80;0.80;;;;;;;;;;5077682;28;20197;-80
2022/09/24 02:14:26;;;;;;;0.80;0.80;;;;;;;;;;5089964;28;20311;-80
2022/09/24 02:16:53;;;;;;;0.90;0.90;;;;;;;;;;5090481;28;20203;-79
2022/09/24 02:19:23;;;;;;;1.30;1.30;;;;;;;;;;5075938;28;20231;-79
2022/09/24 02:21:50;;;;;;;1.60;1.50;;;;;;;;;;5090775;28;20199;-79
2022/09/24 02:24:19;;;;;;;1.27;1.17;;;;;;;;;;5090397;28;20603;-79
2022/09/24 02:26:46;;;;;;;1.30;1.20;;;;;;;;;;5090592;28;20197;-79
2022/09/24 02:29:14;;;;;;;1.30;1.30;;;;;;;;;;5090019;28;20211;-79
2022/09/24 02:31:43;;;;;;;1.37;1.27;;;;;;;;;;5090190;28;20200;-79
2022/09/24 02:34:20;;;;;;;0.87;0.87;;;;;;;;;;5090563;28;20223;-80
2022/09/24 02:36:49;;;;;;;0.83;0.83;;;;;;;;;;5090067;28;20636;-79
2022/09/24 02:39:17;;;;;;;1.00;1.00;;;;;;;;;;5090501;28;20353;-80
2022/09/24 02:41:46;;;;;;;1.77;1.47;;;;;;;;;;5087919;28;20743;-80
2022/09/24 02:44:14;;;;;;;0.93;0.93;;;;;;;;;;5078923;28;20205;-80
2022/09/24 02:46:41;;;;;;;1.00;1.00;;;;;;;;;;5090393;28;20354;-80
2022/09/24 02:49:08;;;;;;;0.93;0.93;;;;;;;;;;5090037;28;20207;-80
2022/09/24 02:51:35;;;;;;;0.90;0.90;;;;;;;;;;5091984;28;20389;-80
2022/09/24 02:54:03;;;;;;;0.83;0.83;;;;;;;;;;5093534;28;20620;-80
2022/09/24 02:56:30;;;;;;;1.13;1.03;;;;;;;;;;5094038;28;20212;-80
2022/09/24 02:58:58;;;;;;;1.47;1.40;;;;;;;;;;5093554;28;20211;-80
2022/09/24 03:01:25;;;;;;;2.27;2.10;;;;;;;;;;5093601;28;20200;-80
2022/09/24 03:03:52;;;;;;;2.83;2.63;;;;;;;;;;5093846;28;20215;-79
2022/09/24 03:06:18;;;;;;;1.90;1.80;;;;;;;;;;5093744;28;20196;-80
2022/09/24 03:08:45;;;;;;;1.47;1.37;;;;;;;;;;5093648;28;20218;-80
2022/09/24 03:11:14;;;;;;;2.63;1.57;;;;;;;;;;5093448;28;20192;-80
2022/09/24 03:13:41;;;;;;;0.80;0.80;;;;;;;;;;5093680;28;20220;-80
2022/09/24 03:16:08;;;;;;;1.17;1.10;;;;;;;;;;5093815;28;20200;-80
2022/09/24 03:18:35;;;;;;;1.57;1.47;;;;;;;;;;5093591;28;20192;-80
2022/09/24 03:21:04;;;;;;;0.83;0.83;;;;;;;;;;5093304;28;20292;-80
2022/09/24 03:23:31;;;;;;;1.93;1.77;;;;;;;;;;5093638;28;20207;-80
2022/09/24 03:25:57;;;;;;;1.70;1.60;;;;;;;;;;5093241;28;20215;-80
2022/09/24 03:28:26;;;;;;;1.50;1.40;;;;;;;;;;5093459;28;20209;-80
2022/09/24 03:31:00;;;;;;;1.70;1.10;;;;;;;;;;5093174;28;20211;-80
2022/09/24 03:33:28;;;;;;;1.20;1.20;;;;;;;;;;5093242;28;20705;-80
2022/09/24 03:35:56;;;;;;;1.33;1.23;;;;;;;;;;5092571;28;20207;-80
2022/09/24 03:38:23;;;;;;;1.23;1.10;;;;;;;;;;5079372;28;20296;-80
2022/09/24 03:40:50;;;;;;;1.00;1.00;;;;;;;;;;5093247;28;20201;-80
2022/09/24 03:43:17;;;;;;;0.90;0.90;;;;;;;;;;5078735;28;20213;-80
2022/09/24 03:45:45;;;;;;;1.20;1.20;;;;;;;;;;5092695;28;20204;-80
2022/09/24 03:48:12;;;;;;;0.67;0.67;;;;;;;;;;5093595;28;20228;-80
2022/09/24 03:50:39;;;;;;;1.40;0.93;;;;;;;;;;5078862;28;20196;-80
2022/09/24 03:53:05;;;;;;;3.07;2.37;;;;;;;;;;5092453;28;20226;-80
2022/09/24 03:55:32;;;;;;;5.07;3.73;;;;;;;;;;5092466;28;20249;-80
2022/09/24 03:57:59;;;;;;;5.73;3.30;;;;;;;;;;5092766;28;20205;-80
2022/09/24 04:00:26;;;;;;;1.63;1.53;;;;;;;;;;5090314;28;20200;-80
2022/09/24 04:02:54;;;;;;;1.63;1.50;;;;;;;;;;5081117;28;20242;-80
2022/09/24 04:05:21;;;;;;;1.00;1.00;;;;;;;;;;5091883;28;20207;-80
2022/09/24 04:07:47;;;;;;;1.23;1.20;;;;;;;;;;5092671;28;20207;-79
2022/09/24 04:10:14;;;;;;;0.90;0.90;;;;;;;;;;5092655;28;20217;-80
2022/09/24 04:12:42;;;;;;;0.80;0.80;;;;;;;;;;5092652;28;20204;-80
2022/09/24 04:15:10;;;;;;;1.40;1.20;;;;;;;;;;5092105;28;20231;-80
2022/09/24 04:17:37;;;;;;;1.07;0.93;;;;;;;;;;5092178;28;20631;-80
2022/09/24 04:20:06;;;;;;;0.97;0.97;;;;;;;;;;5092145;28;20281;-80
2022/09/24 04:22:33;;;;;;;0.80;0.80;;;;;;;;;;5092301;28;20644;-80
2022/09/24 04:25:02;;;;;;;0.70;0.70;;;;;;;;;;5092296;28;20205;-80
2022/09/24 04:27:28;;;;;;;0.80;0.80;;;;;;;;;;5092393;28;20204;-80
2022/09/24 04:29:55;;;;;;;0.50;0.50;;;;;;;;;;5092308;28;20200;-80
2022/09/24 04:32:22;;;;;;;0.70;0.70;;;;;;;;;;5092363;28;20636;-80
2022/09/24 04:34:49;;;;;;;1.27;1.27;;;;;;;;;;5091326;28;20255;-79
2022/09/24 04:37:17;;;;;;;0.90;0.90;;;;;;;;;;5091882;28;20211;-80
2022/09/24 04:39:44;;;;;;;1.13;1.00;;;;;;;;;;5092236;28;20193;-80
2022/09/24 04:42:10;;;;;;;0.60;0.60;;;;;;;;;;5082007;28;20205;-80
2022/09/24 04:44:37;;;;;;;0.80;0.80;;;;;;;;;;5083151;28;20204;-80
2022/09/24 04:47:06;;;;;;;0.70;0.70;;;;;;;;;;5077456;28;20588;-80
2022/09/24 04:49:33;;;;;;;0.80;0.80;;;;;;;;;;5091906;28;20291;-80
2022/09/24 04:52:00;;;;;;;1.40;1.30;;;;;;;;;;5082481;28;20641;-80
2022/09/24 04:54:28;;;;;;;0.90;0.90;;;;;;;;;;5088627;28;20315;-80
2022/09/24 04:56:55;;;;;;;1.93;1.83;;;;;;;;;;5086030;28;20288;-78
2022/09/24 04:59:22;;;;;;;2.03;1.83;;;;;;;;;;5081745;28;20201;-77
2022/09/24 05:01:49;;;;;;;2.00;1.80;;;;;;;;;;5090688;28;20204;-77
2022/09/24 05:04:16;;;;;;;1.60;1.50;;;;;;;;;;5090741;28;20201;-76
2022/09/24 05:06:42;;;;;;;1.30;1.20;;;;;;;;;;5090996;28;20570;-76
2022/09/24 05:09:09;;;;;;;5.87;3.13;;;;;;;;;;5090643;28;20196;-77
2022/09/24 05:11:37;;;;;;;6.43;3.80;;;;;;;;;;5079261;28;20204;-76
2022/09/24 05:14:05;;;;;;;3.67;3.23;;;;;;;;;;5089752;28;20212;-76
2022/09/24 05:16:31;;;;;;;9.77;6.90;;;;;;;;;;5090313;28;20196;-77
2022/09/24 05:18:58;;;;;;;13.53;7.90;;;;;;;;;;5080093;28;20233;-78
2022/09/24 05:21:25;;;;;;;5.87;4.50;;;;;;;;;;5087487;28;20678;-78
2022/09/24 05:23:52;;;;;;;5.57;3.00;;;;;;;;;;5090848;28;20204;-78
2022/09/24 05:29:04;;;;;;;0.90;0.90;;;;;;;;;;5090774;28;20784;-78
2022/09/24 05:31:31;;;;;;;0.87;0.87;;;;;;;;;;5090392;28;20204;-78
2022/09/24 05:33:57;;;;;;;1.70;1.60;;;;;;;;;;5079209;28;20224;-78
2022/09/24 05:36:25;;;;;;;1.37;1.27;;;;;;;;;;5086993;28;20246;-77
2022/09/24 05:38:52;;;;;;;1.33;1.23;;;;;;;;;;5089593;28;20204;-78
2022/09/24 05:41:19;;;;;;;1.10;1.07;;;;;;;;;;5089014;28;20205;-78
2022/09/24 05:43:46;;;;;;;1.20;1.10;;;;;;;;;;5088753;28;20201;-78
2022/09/24 05:46:14;;;;;;;0.90;0.90;;;;;;;;;;5090727;28;20674;-77
2022/09/24 05:48:41;;;;;;;1.00;1.00;;;;;;;;;;5090708;28;20196;-77
2022/09/24 05:51:08;;;;;;;1.30;1.13;;;;;;;;;;5090787;28;20204;-78
2022/09/24 05:53:35;;;;;;;1.27;1.17;;;;;;;;;;5080869;28;20230;-78
2022/09/24 05:56:01;;;;;;;1.20;1.13;;;;;;;;;;5081894;28;20196;-78
2022/09/24 05:58:28;;;;;;;1.23;1.13;;;;;;;;;;5090033;28;20211;-78
2022/09/24 06:00:55;;;;;;;1.20;1.10;;;;;;;;;;5089522;28;20204;-78
2022/09/24 06:03:23;;;;;;;0.90;0.90;;;;;;;;;;5089485;28;20200;-78
2022/09/24 06:05:50;;;;;;;1.53;1.27;;;;;;;;;;5089561;28;20610;-78
2022/09/24 06:08:18;;;;;;;1.23;1.23;;;;;;;;;;5089326;28;20689;-78
2022/09/24 06:10:46;;;;;;;0.70;0.70;;;;;;;;;;5090344;28;20201;-78
2022/09/24 06:13:13;;;;;;;0.80;0.80;;;;;;;;;;5090636;28;20235;-78
2022/09/24 06:15:40;;;;;;;0.80;0.80;;;;;;;;;;5089765;28;20228;-78
2022/09/24 06:18:06;;;;;;;1.00;1.00;;;;;;;;;;5090435;28;20207;-78
2022/09/24 06:20:35;;;;;;;0.77;0.77;;;;;;;;;;5090348;28;20238;-78
2022/09/24 06:23:02;;;;;;;0.97;0.97;;;;;;;;;;5090185;28;20196;-78
2022/09/24 06:25:29;;;;;;;0.80;0.80;;;;;;;;;;5092275;28;20227;-78
2022/09/24 06:27:59;;;;;;;1.37;1.30;;;;;;;;;;5094414;28;20196;-78
2022/09/24 06:30:27;;;;;;;0.97;0.97;;;;;;;;;;5094476;28;20667;-79
2022/09/24 06:32:54;;;;;;;0.70;0.70;;;;;;;;;;5094635;28;20644;-78
2022/09/24 06:35:21;;;;;;;0.80;0.80;;;;;;;;;;5093973;28;20713;-79
2022/09/24 06:37:49;;;;;;;1.00;1.00;;;;;;;;;;5093965;28;20648;-79
2022/09/24 06:40:16;;;;;;;0.80;0.80;;;;;;;;;;5091747;28;20197;-79
2022/09/24 06:42:43;;;;;;;0.87;0.87;;;;;;;;;;5088008;28;20207;-78
2022/09/24 06:45:12;;;;;;;0.87;0.87;;;;;;;;;;5091516;28;20203;-78
2022/09/24 06:47:38;;;;;;;0.80;0.80;;;;;;;;;;5091271;28;20202;-78
2022/09/24 06:50:07;;;;;;;0.90;0.90;;;;;;;;;;5091213;28;20239;-78
2022/09/24 06:52:34;;;;;;;0.90;0.90;;;;;;;;;;5092653;28;20692;-78
2022/09/24 06:55:02;;;;;;;0.90;0.90;;;;;;;;;;5091865;28;20646;-78
2022/09/24 06:57:29;;;;;;;1.20;1.20;;;;;;;;;;5092575;28;20208;-78
2022/09/24 06:59:55;;;;;;;1.40;1.30;;;;;;;;;;5091859;28;20265;-79
2022/09/24 07:02:22;;;;;;;1.00;1.00;;;;;;;;;;5089879;28;20211;-78
2022/09/24 07:04:49;;;;;;;1.10;0.80;;;;;;;;;;5087437;28;20208;-79
2022/09/24 07:07:32;;;;;;;0.97;0.97;;;;;;;;;;5093055;28;20203;-79
2022/09/24 07:10:00;;;;;;;0.93;0.93;;;;;;;;;;5093065;28;20210;-79
2022/09/24 07:12:28;;;;;;;0.73;0.73;;;;;;;;;;5092760;28;20700;-79
2022/09/24 07:14:57;;;;;;;0.83;0.83;;;;;;;;;;5092399;28;20312;-79
2022/09/24 07:17:24;;;;;;;1.13;0.93;;;;;;;;;;5092607;28;20214;-79
2022/09/24 07:19:50;;;;;;;0.87;0.70;;;;;;;;;;5092363;28;20235;-79
2022/09/24 07:22:18;;;;;;;2.30;1.40;;;;;;;;;;5092938;28;20640;-79
2022/09/24 07:24:45;;;;;;;1.00;1.00;;;;;;;;;;5092331;28;21030;-79
2022/09/24 07:27:13;;;;;;;1.00;1.00;;;;;;;;;;5090156;28;20193;-79
2022/09/24 07:29:41;;;;;;;1.00;1.00;;;;;;;;;;5079583;28;20557;-79
2022/09/24 07:32:08;;;;;;;1.00;1.00;;;;;;;;;;5092378;28;20196;-78
2022/09/24 07:34:34;;;;;;;0.87;0.87;;;;;;;;;;5077829;28;20220;-79
2022/09/24 07:37:01;;;;;;;1.13;1.03;;;;;;;;;;5091541;28;20204;-79
2022/09/24 07:39:28;;;;;;;1.30;1.30;;;;;;;;;;5091976;28;20204;-79
2022/09/24 07:41:55;;;;;;;1.23;1.23;;;;;;;;;;5092498;28;20200;-78
2022/09/24 07:44:22;;;;;;;0.80;0.80;;;;;;;;;;5092230;28;20200;-79
2022/09/24 07:46:50;;;;;;;1.40;1.30;;;;;;;;;;5091801;28;20295;-78
2022/09/24 07:49:17;;;;;;;1.03;1.03;;;;;;;;;;5092305;28;20207;-79
2022/09/24 07:51:44;;;;;;;0.93;0.93;;;;;;;;;;5078103;28;20200;-79
2022/09/24 07:54:11;;;;;;;1.00;1.00;;;;;;;;;;5092183;28;20682;-79
2022/09/24 07:56:41;;;;;;;1.20;1.20;;;;;;;;;;5091709;28;20202;-78
2022/09/24 07:59:10;;;;;;;1.10;1.00;;;;;;;;;;5092015;28;20212;-79
2022/09/24 08:01:36;;;;;;;1.03;1.03;;;;;;;;;;5092162;28;20238;-77
2022/09/24 08:04:05;;;;;;;1.07;1.07;;;;;;;;;;5074700;28;20562;-82
2022/09/24 08:06:32;;;;;;;1.57;1.20;;;;;;;;;;5092040;28;20269;-83
2022/09/24 08:08:59;;;;;;;0.90;0.90;;;;;;;;;;5091519;28;20289;-82
2022/09/24 08:11:26;;;;;;;0.80;0.80;;;;;;;;;;5091635;28;20203;-82
2022/09/24 08:13:53;;;;;;;1.13;1.03;;;;;;;;;;5092027;28;20701;-82
2022/09/24 08:16:21;;;;;;;0.90;0.90;;;;;;;;;;5092604;28;20234;-82
2022/09/24 08:18:48;;;;;;;0.90;0.90;;;;;;;;;;5080540;28;20223;-82
2022/09/24 08:21:16;;;;;;;1.10;1.10;;;;;;;;;;5083609;28;20199;-81
2022/09/24 08:23:43;;;;;;;1.80;1.70;;;;;;;;;;5089804;28;20205;-82
2022/09/24 08:26:11;;;;;;;1.30;1.20;;;;;;;;;;5088508;28;20208;-82
2022/09/24 08:28:39;;;;;;;1.90;1.80;;;;;;;;;;5091873;28;20195;-82
2022/09/24 08:31:07;;;;;;;1.10;1.10;;;;;;;;;;5091484;28;20284;-82
2022/09/24 08:33:35;;;;;;;1.60;1.50;;;;;;;;;;5092001;28;20212;-82
2022/09/24 08:36:03;;;;;;;1.50;1.40;;;;;;;;;;5091685;28;20227;-82
2022/09/24 08:38:31;;;;;;;1.13;1.13;;;;;;;;;;5091833;28;20208;-81
2022/09/24 08:41:05;;;;;;;1.13;1.13;;;;;;;;;;5077931;28;20207;-82
2022/09/24 08:43:40;;;;;;;1.10;1.00;;;;;;;;;;5091727;28;20206;-82
2022/09/24 08:48:59;;;;;;;1.17;1.17;;;;;;;;;;5078977;28;20236;-81
2022/09/24 08:51:26;;;;;;;1.17;1.17;;;;;;;;;;5088462;28;20197;-82
2022/09/24 08:53:57;;;;;;;1.30;1.20;;;;;;;;;;5090005;28;20200;-81
2022/09/24 08:56:29;;;;;;;1.00;1.00;;;;;;;;;;5091012;28;20235;-81
2022/09/24 08:58:58;;;;;;;0.90;0.90;;;;;;;;;;5090457;28;20702;-82
2022/09/24 09:01:33;;;;;;;0.80;0.80;;;;;;;;;;5076248;28;20231;-80
2022/09/24 09:04:03;;;;;;;1.20;1.10;;;;;;;;;;5081326;28;20208;-83
2022/09/24 09:06:44;;;;;;;1.40;1.30;;;;;;;;;;5087370;28;20203;-81
2022/09/24 09:09:15;;;;;;;1.13;1.13;;;;;;;;;;5091630;28;20204;-82
2022/09/24 09:11:45;;;;;;;0.97;0.97;;;;;;;;;;5091270;28;20698;-81
2022/09/24 09:14:17;;;;;;;1.53;1.43;;;;;;;;;;5091659;28;20209;-81
2022/09/24 09:16:47;;;;;;;1.10;1.10;;;;;;;;;;5091466;28;20219;-82
2022/09/24 09:19:16;;;;;;;1.47;1.30;;;;;;;;;;5091312;28;20235;-82
2022/09/24 09:21:45;;;;;;;0.90;0.90;;;;;;;;;;5082889;28;20211;-82
2022/09/24 09:24:16;;;;;;;1.20;1.17;;;;;;;;;;5089517;28;20200;-83
2022/09/24 09:26:46;;;;;;;1.00;1.00;;;;;;;;;;5090140;28;20253;-83
2022/09/24 09:29:13;;;;;;;1.20;1.20;;;;;;;;;;5091749;28;20281;-82
2022/09/24 09:31:47;;;;;;;1.20;1.20;;;;;;;;;;5091387;28;20290;-82
2022/09/24 09:34:27;;;;;;;1.40;1.30;;;;;;;;;;5090816;28;20219;-84
2022/09/24 09:37:01;;;;;;;1.00;1.00;;;;;;;;;;5090700;28;20228;-81
2022/09/24 09:39:43;;;;;;;1.37;1.27;;;;;;;;;;5090988;28;20195;-82
2022/09/24 09:42:21;;;;;;;1.00;1.00;;;;;;;;;;5090984;28;20204;-82
2022/09/24 09:44:49;;;;;;;1.00;1.00;;;;;;;;;;5090849;28;20204;-81
2022/09/24 09:47:20;;;;;;;0.90;0.90;;;;;;;;;;5090828;28;20220;-83
2022/09/24 09:49:49;;;;;;;1.83;0.90;;;;;;;;;;5090590;28;20615;-83
2022/09/24 09:52:19;;;;;;;0.90;0.90;;;;;;;;;;5090907;28;20287;-81
2022/09/24 09:54:47;;;;;;;1.63;1.53;;;;;;;;;;5090683;28;20236;-81
2022/09/24 09:57:17;;;;;;;1.90;1.70;;;;;;;;;;5076790;28;20214;-81
2022/09/24 09:59:46;;;;;;;1.80;1.70;;;;;;;;;;5079473;28;20205;-81
2022/09/24 10:02:21;;;;;;;1.47;1.37;;;;;;;;;;5087766;28;20203;-81
2022/09/24 10:04:49;;;;;;;1.13;1.13;;;;;;;;;;5090930;28;20199;-81
2022/09/24 10:07:17;;;;;;;1.13;1.03;;;;;;;;;;5090004;28;20211;-81
2022/09/24 10:09:45;;;;;;;0.90;0.90;;;;;;;;;;5090528;28;20224;-81
2022/09/24 10:12:20;;;;;;;0.97;0.97;;;;;;;;;;5090639;28;20203;-82
2022/09/24 10:14:58;;;;;;;0.90;0.90;;;;;;;;;;5090618;28;20770;-81
2022/09/24 10:17:28;;;;;;;1.47;1.37;;;;;;;;;;5090428;28;20596;-80
2022/09/24 10:19:55;;;;;;;1.60;1.50;;;;;;;;;;5090699;28;20251;-81
2022/09/24 10:22:25;;;;;;;1.43;1.33;;;;;;;;;;5085254;28;20645;-81
2022/09/24 10:24:53;;;;;;;1.37;1.33;;;;;;;;;;5087205;28;20215;-83
2022/09/24 10:27:27;;;;;;;1.13;1.07;;;;;;;;;;5088839;28;20219;-81
2022/09/24 10:32:41;;;;;;;1.00;1.00;;;;;;;;;;5088330;28;20799;-82
2022/09/24 10:35:21;;;;;;;1.43;1.37;;;;;;;;;;5088066;28;20199;-80
2022/09/24 10:37:51;;;;;;;1.50;1.40;;;;;;;;;;5088567;28;20203;-80
2022/09/24 10:40:23;;;;;;;2.07;1.90;;;;;;;;;;5088774;28;20200;-81
2022/09/24 10:42:57;;;;;;;1.37;1.37;;;;;;;;;;5077730;28;20205;-80
2022/09/24 10:45:41;;;;;;;0.80;0.80;;;;;;;;;;5087586;28;20286;-81
2022/09/24 10:48:17;;;;;;;0.97;0.97;;;;;;;;;;5085919;28;20215;-82
2022/09/24 10:50:47;;;;;;;1.17;1.13;;;;;;;;;;5089279;28;20196;-81
2022/09/24 10:53:18;;;;;;;1.20;1.10;;;;;;;;;;5089564;28;20204;-80
2022/09/24 10:55:54;;;;;;;1.10;1.10;;;;;;;;;;5088836;28;20609;-80
2022/09/24 10:58:31;;;;;;;1.07;1.00;;;;;;;;;;5089480;28;20215;-80
2022/09/24 11:01:07;;;;;;;0.90;0.90;;;;;;;;;;5089480;28;20237;-80
2022/09/24 11:04:09;;;;;;;1.50;1.40;;;;;;;;;;5089335;28;20207;-80
2022/09/24 11:06:44;;;;;;;1.30;1.20;;;;;;;;;;5082790;28;20211;-80
2022/09/24 11:09:21;;;;;;;1.10;1.10;;;;;;;;;;5088963;28;20227;-80
2022/09/24 11:11:57;;;;;;;1.67;1.57;;;;;;;;;;5084016;28;20200;-80
2022/09/24 11:14:44;;;;;;;1.00;1.00;;;;;;;;;;5088849;28;20200;-80
2022/09/24 11:17:32;;;;;;;0.83;0.83;;;;;;;;;;5092101;28;20223;-81
2022/09/24 11:20:24;;;;;;;1.07;1.07;;;;;;;;;;5091681;28;20317;-79
2022/09/24 11:23:19;;;;;;;1.20;1.10;;;;;;;;;;5091887;28;20218;-80
2022/09/24 11:25:50;;;;;;;0.90;0.90;;;;;;;;;;5043348;28;20371;-80
2022/09/24 11:28:37;;;;;;;1.93;1.77;;;;;;;;;;5091788;28;20247;-79
2022/09/24 11:31:12;;;;;;;1.13;1.13;;;;;;;;;;5073633;28;20264;-79
2022/09/24 11:34:02;;;;;;;1.50;1.40;;;;;;;;;;5091207;28;20291;-80
2022/09/24 11:36:41;;;;;;;1.17;1.17;;;;;;;;;;5091344;28;20662;-79
2022/09/24 11:39:18;;;;;;;1.30;1.20;;;;;;;;;;5090868;28;20208;-80
2022/09/24 11:41:50;;;;;;;1.47;1.37;;;;;;;;;;5073640;28;20196;-80
2022/09/24 11:44:46;;;;;;;2.30;2.20;;;;;;;;;;5073466;28;20755;-79
2022/09/24 11:47:25;;;;;;;1.23;1.13;;;;;;;;;;5060364;28;20209;-80
2022/09/24 11:50:05;;;;;;;0.80;0.80;;;;;;;;;;5091172;28;20231;-79
2022/09/24 11:52:37;;;;;;;0.90;0.90;;;;;;;;;;5072613;28;20589;-79
2022/09/24 11:55:12;;;;;;;1.30;1.20;;;;;;;;;;5090804;28;20674;-80
2022/09/24 11:57:42;;;;;;;2.80;2.50;;;;;;;;;;5090908;28;20224;-78
2022/09/24 12:00:15;;;;;;;1.93;1.60;;;;;;;;;;5090953;28;20203;-79
2022/09/24 12:02:49;;;;;;;1.30;1.20;;;;;;;;;;5090624;28;20208;-80
2022/09/24 12:05:24;;;;;;;0.97;0.97;;;;;;;;;;5090337;28;20742;-80
2022/09/24 12:07:54;;;;;;;0.90;0.90;;;;;;;;;;5070966;28;20201;-79
2022/09/24 12:10:31;;;;;;;1.53;1.00;;;;;;;;;;5066729;28;20283;-80
2022/09/24 12:13:04;;;;;;;1.07;0.90;;;;;;;;;;5090751;28;20302;-80
2022/09/24 12:15:45;;;;;;;1.40;1.30;;;;;;;;;;5071560;28;20613;-80
2022/09/24 12:18:21;;;;;;;1.50;1.40;;;;;;;;;;5066633;28;20215;-79
2022/09/24 12:20:51;;;;;;;1.30;1.20;;;;;;;;;;5077690;28;20228;-79
2022/09/24 12:23:20;;;;;;;1.13;1.13;;;;;;;;;;5073710;28;20216;-82
2022/09/24 12:25:50;;;;;;;1.03;1.03;;;;;;;;;;5091675;28;20204;-80
2022/09/24 12:32:53;;;;;;;1.30;1.20;;;;;;;;;;5092853;28;20204;-80
2022/09/24 12:34:03;;;;;;;0.70;0.70;;;;;;;;;;5091693;28;20317;-82
2022/09/24 12:36:38;;;;;;;1.17;1.07;;;;;;;;;;5092368;28;20725;-81
2022/09/24 12:39:07;;;;;;;0.90;0.90;;;;;;;;;;5092089;28;20206;-81
2022/09/24 12:41:36;;;;;;;0.97;0.97;;;;;;;;;;5092030;28;20204;-81
2022/09/24 12:44:06;;;;;;;1.07;1.00;;;;;;;;;;5092322;28;20208;-82
2022/09/24 12:46:39;;;;;;;1.13;1.13;;;;;;;;;;5092020;28;20204;-81
2022/09/24 12:49:18;;;;;;;2.00;1.90;;;;;;;;;;5092078;28;20263;-80
2022/09/24 12:51:45;;;;;;;1.20;1.20;;;;;;;;;;5091999;28;20204;-80
2022/09/24 12:54:25;;;;;;;1.40;1.30;;;;;;;;;;5092060;28;20204;-80
2022/09/24 12:56:52;;;;;;;1.10;1.10;;;;;;;;;;5091432;28;20224;-80
2022/09/24 12:59:25;;;;;;;1.13;1.07;;;;;;;;;;5092029;28;20208;-81
2022/09/24 13:01:53;;;;;;;1.00;1.00;;;;;;;;;;5091787;28;20250;-80
2022/09/24 13:04:29;;;;;;;1.40;1.30;;;;;;;;;;5085531;28;20201;-81
2022/09/24 13:06:56;;;;;;;1.10;1.00;;;;;;;;;;5085284;28;20207;-80
2022/09/24 13:09:31;;;;;;;1.40;1.30;;;;;;;;;;5091203;28;20200;-79
2022/09/24 13:12:23;;;;;;;0.90;0.90;;;;;;;;;;5091388;28;20230;-80
2022/09/24 13:14:55;;;;;;;0.93;0.93;;;;;;;;;;5060832;28;20682;-79
2022/09/24 13:17:22;;;;;;;0.80;0.80;;;;;;;;;;5091584;28;20255;-79
2022/09/24 13:19:57;;;;;;;1.83;0.90;;;;;;;;;;5090894;28;20633;-79
2022/09/24 13:22:27;;;;;;;1.77;1.67;;;;;;;;;;5085708;28;20283;-79
2022/09/24 13:25:17;;;;;;;1.10;1.10;;;;;;;;;;5072650;28;20197;-79
2022/09/24 13:27:46;;;;;;;1.27;1.20;;;;;;;;;;5089416;28;20758;-79
2022/09/24 13:30:19;;;;;;;0.80;0.80;;;;;;;;;;5090629;28;20206;-79
2022/09/24 13:32:51;;;;;;;1.40;1.30;;;;;;;;;;5078589;28;20196;-79
2022/09/24 13:35:24;;;;;;;1.00;1.00;;;;;;;;;;5090635;28;20200;-80
2022/09/24 13:37:54;;;;;;;1.13;1.03;;;;;;;;;;5091194;28;20219;-79
2022/09/24 13:40:24;;;;;;;0.93;0.80;;;;;;;;;;5077697;28;20239;-79
2022/09/24 13:42:56;;;;;;;0.77;0.77;;;;;;;;;;5090283;28;20574;-79
2022/09/24 13:45:24;;;;;;;1.40;1.30;;;;;;;;;;5090845;28;20200;-78
2022/09/24 13:47:53;;;;;;;0.90;0.90;;;;;;;;;;5090477;28;20203;-79
2022/09/24 13:50:25;;;;;;;1.17;1.17;;;;;;;;;;5090614;28;20682;-78
2022/09/24 13:52:54;;;;;;;1.07;1.03;;;;;;;;;;5090795;28;20678;-79
2022/09/24 13:55:24;;;;;;;0.70;0.70;;;;;;;;;;5090809;28;20200;-79
2022/09/24 13:57:51;;;;;;;0.93;0.93;;;;;;;;;;5076600;28;20227;-80
2022/09/24 14:00:20;;;;;;;1.50;1.40;;;;;;;;;;5090792;28;20246;-79
2022/09/24 14:02:56;;;;;;;1.00;1.00;;;;;;;;;;5090770;28;20204;-79
2022/09/24 14:05:24;;;;;;;0.90;0.90;;;;;;;;;;5090648;28;20210;-78
2022/09/24 14:07:57;;;;;;;1.40;1.30;;;;;;;;;;5090271;28;20203;-79
2022/09/24 14:10:24;;;;;;;1.57;1.50;;;;;;;;;;5090447;28;20212;-79
2022/09/24 14:13:02;;;;;;;1.30;1.20;;;;;;;;;;5071523;28;20205;-79
2022/09/24 14:15:29;;;;;;;1.00;1.00;;;;;;;;;;5089688;28;20206;-79
2022/09/24 14:17:58;;;;;;;1.00;1.00;;;;;;;;;;5072542;28;20612;-79
2022/09/24 14:20:29;;;;;;;0.90;0.90;;;;;;;;;;5072154;28;20255;-78
2022/09/24 14:22:57;;;;;;;1.03;1.00;;;;;;;;;;5090771;28;20200;-78
2022/09/24 14:25:27;;;;;;;1.97;1.87;;;;;;;;;;5090391;28;20200;-78
2022/09/24 14:27:54;;;;;;;1.10;1.10;;;;;;;;;;5090815;28;20587;-78
2022/09/24 14:30:23;;;;;;;1.20;1.20;;;;;;;;;;5090444;28;20205;-78
2022/09/24 14:32:51;;;;;;;1.13;1.13;;;;;;;;;;5090350;28;20214;-78
2022/09/24 14:35:28;;;;;;;1.00;1.00;;;;;;;;;;5090883;28;20283;-78
2022/09/24 14:37:59;;;;;;;0.80;0.80;;;;;;;;;;5090259;28;20227;-78
2022/09/24 14:40:28;;;;;;;0.80;0.80;;;;;;;;;;5090320;28;20207;-79
2022/09/24 14:42:56;;;;;;;0.90;0.90;;;;;;;;;;5090969;28;20200;-79
2022/09/24 14:45:25;;;;;;;0.70;0.70;;;;;;;;;;5089496;28;20287;-78
2022/09/24 14:47:59;;;;;;;1.30;1.20;;;;;;;;;;5093905;28;20200;-78
2022/09/24 14:50:34;;;;;;;0.90;0.90;;;;;;;;;;5094126;28;20204;-78
2022/09/24 14:53:02;;;;;;;0.90;0.90;;;;;;;;;;5094298;28;20685;-78
2022/09/24 14:55:40;;;;;;;0.80;0.80;;;;;;;;;;5094290;28;20208;-78
2022/09/24 14:58:22;;;;;;;1.10;1.10;;;;;;;;;;5094121;28;20226;-78
2022/09/24 15:00:51;;;;;;;1.20;1.10;;;;;;;;;;5093788;28;20211;-79
2022/09/24 15:03:26;;;;;;;0.83;0.83;;;;;;;;;;5094213;28;20196;-78
2022/09/24 15:06:02;;;;;;;0.93;0.93;;;;;;;;;;5093928;28;20199;-78
2022/09/24 15:08:31;;;;;;;0.80;0.80;;;;;;;;;;5093595;28;20207;-78
2022/09/24 15:10:59;;;;;;;1.27;1.20;;;;;;;;;;5079093;28;20565;-78
2022/09/24 15:13:27;;;;;;;1.00;1.00;;;;;;;;;;5094357;28;20196;-78
2022/09/24 15:16:16;;;;;;;1.10;1.10;;;;;;;;;;5093758;28;20196;-78